Weather History for Sturgis, MI

Change the Weather History Date:

Wednesday, March 19, 2014

  Actual Average (KHAI) Record (KHAI)
Temperature  
Mean Temperature 38 °F -  
Max Temperature 42 °F 45 °F 79 °F (2012)
Min Temperature 33 °F 28 °F 9 °F (1965)
Degree Days  
Heating Degree Days 28    
Moisture  
Dew Point 37 °F    
Average Humidity 92    
Maximum Humidity 100    
Minimum Humidity 81    
Precipitation  
Precipitation 0.00 in - - ()
Sea Level Pressure  
Sea Level Pressure 29.71 in    
Wind  
Wind Speed 10 mph (SSW)    
Max Wind Speed 22 mph    
Max Gust Speed 32 mph    
Visibility 6 miles    
Events Rain    
Averages and records for this station are not official NWS values.
T = Trace of Precipitation, MM = Missing Value Source: NWS Daily Summary

Daily Weather History Graph

Daily Weather History Graph

Search for Another Location

Airport:

Trip Planner

Search our weather history database for the weather conditions in past years. The results will help you decide how hot, cold, wet, or windy it might be!

Date:

Astronomy

Mar. 19, 2014 Rise Set
Actual Time 7:46 AM EDT 7:52 PM EDT
Civil Twilight 7:19 AM EDT 8:20 PM EDT
Nautical Twilight 6:46 AM EDT 8:53 PM EDT
Astronomical Twilight 6:13 AM EDT 9:26 PM EDT
Moon 11:13 PM EDT (3/19) 9:09 AM EDT (3/19)
Length of Visible Light 13h 01m
Length of Day
12h 06m
Waning Gibbous, 91% of the Moon is Illuminated
Mar 19
Waning Gibbous
Mar 23
Last Quarter
Mar 30
New
Apr 7
First Quarter
Apr 15
Full

Hourly Weather History & Observations

Time (EDT) Temp. Windchill Dew Point Humidity Pressure Visibility Wind Dir Wind Speed Gust Speed Precip Events Conditions
12:14 AM 37.4 °F 32.8 °F 32.0 °F 81% 29.82 in 10.0 mi SSE 5.8 mph - N/A   Mostly Cloudy
12:35 AM 37.4 °F 31.4 °F 32.0 °F 81% 29.82 in 10.0 mi SE 8.1 mph - N/A   Overcast
12:55 AM 37.4 °F 31.4 °F 32.0 °F 81% 29.81 in 10.0 mi SE 8.1 mph - N/A   Overcast
1:14 AM 37.4 °F 30.3 °F 32.0 °F 81% 29.79 in 10.0 mi ESE 10.4 mph - N/A   Overcast
1:35 AM 37.4 °F 31.4 °F 33.8 °F 87% 29.78 in 10.0 mi SE 8.1 mph - N/A   Overcast
1:55 AM 37.4 °F 29.8 °F 33.8 °F 87% 29.76 in 10.0 mi ESE 11.5 mph - N/A   Overcast
2:14 AM 37.4 °F 30.8 °F 33.8 °F 87% 29.75 in 10.0 mi ESE 9.2 mph - N/A   Overcast
2:35 AM 37.4 °F 30.3 °F 33.8 °F 87% 29.75 in 10.0 mi SE 10.4 mph - N/A   Overcast
2:55 AM 37.4 °F 28.9 °F 33.8 °F 87% 29.73 in 10.0 mi ESE 13.8 mph 19.6 mph N/A   Overcast
3:14 AM 37.4 °F 29.3 °F 33.8 °F 87% 29.72 in 10.0 mi SE 12.7 mph - N/A   Overcast
3:35 AM 39.2 °F 32.0 °F 33.8 °F 81% 29.71 in 10.0 mi SE 11.5 mph - N/A   Overcast
3:55 AM 39.2 °F 32.0 °F 35.6 °F 87% 29.70 in 10.0 mi SE 11.5 mph - N/A   Overcast
4:14 AM 39.2 °F 33.0 °F 35.6 °F 87% 29.69 in 10.0 mi SE 9.2 mph - N/A   Overcast
4:35 AM 39.2 °F 33.6 °F 35.6 °F 87% 29.69 in 7.0 mi SE 8.1 mph - N/A   Mostly Cloudy
4:55 AM 39.2 °F 32.5 °F 35.6 °F 87% 29.68 in 7.0 mi SE 10.4 mph - N/A   Drizzle
5:14 AM 39.2 °F 32.5 °F 37.4 °F 93% 29.68 in 7.0 mi SSE 10.4 mph - N/A   Overcast
5:35 AM 39.2 °F 33.0 °F 35.6 °F 87% 29.67 in 7.0 mi SSE 9.2 mph - N/A   Overcast
5:55 AM 39.2 °F 32.5 °F 37.4 °F 93% 29.67 in 7.0 mi SSE 10.4 mph - N/A   Overcast
6:15 AM 39.2 °F 32.5 °F 37.4 °F 93% 29.66 in 7.0 mi SSE 10.4 mph - N/A   Overcast
6:35 AM 39.2 °F 33.0 °F 37.4 °F 93% 29.65 in 7.0 mi SSE 9.2 mph - N/A   Overcast
6:54 AM 39.2 °F 33.0 °F 37.4 °F 93% 29.65 in 7.0 mi SSE 9.2 mph - N/A   Overcast
7:15 AM 39.2 °F 32.5 °F 37.4 °F 93% 29.65 in 4.0 mi SSE 10.4 mph - N/A Rain Light Rain
7:35 AM 41.0 °F 33.9 °F 39.2 °F 93% 29.65 in 3.0 mi South 12.7 mph 17.3 mph N/A Rain Rain
7:54 AM 41.0 °F 34.7 °F 39.2 °F 93% 29.64 in 4.0 mi South 10.4 mph - N/A Rain Rain
8:14 AM 41.0 °F 34.3 °F 39.2 °F 93% 29.64 in 4.0 mi South 11.5 mph - N/A   Drizzle
8:35 AM 41.0 °F 34.7 °F 39.2 °F 93% 29.63 in 4.0 mi South 10.4 mph - N/A   Drizzle
8:55 AM 41.0 °F 35.8 °F 39.2 °F 93% 29.63 in 1.8 mi South 8.1 mph - N/A Rain Rain
9:15 AM 41.0 °F 34.7 °F 39.2 °F 93% 29.63 in 1.8 mi South 10.4 mph - N/A Rain Rain
9:35 AM 41.0 °F 33.9 °F 39.2 °F 93% 29.63 in 1.8 mi South 12.7 mph - N/A Rain Rain
9:54 AM 41.0 °F 35.2 °F 39.2 °F 93% 29.62 in 2.0 mi South 9.2 mph - N/A Rain Light Rain
10:15 AM 41.0 °F 34.3 °F 39.2 °F 93% 29.62 in 2.5 mi South 11.5 mph - N/A   Light Drizzle
10:35 AM 42.8 °F 35.4 °F 41.0 °F 93% 29.62 in 5.0 mi SSW 15.0 mph 23.0 mph N/A   Overcast
10:54 AM 42.8 °F 35.4 °F 41.0 °F 93% 29.62 in 4.0 mi SSW 15.0 mph - N/A   Overcast
11:15 AM 42.8 °F 38.0 °F 39.2 °F 87% 29.62 in 2.0 mi SSW 8.1 mph - N/A   Drizzle
11:35 AM 41.0 °F 36.4 °F 39.2 °F 93% 29.62 in 2.0 mi South 6.9 mph - N/A   Overcast
11:55 AM 42.8 °F 37.0 °F 41.0 °F 93% 29.61 in 2.5 mi South 10.4 mph - N/A   Overcast
12:15 PM 42.8 °F 37.0 °F 41.0 °F 93% 29.61 in 5.0 mi SSW 10.4 mph - N/A   Overcast
12:34 PM 42.8 °F 36.2 °F 41.0 °F 93% 29.61 in 5.0 mi SSW 12.7 mph - N/A   Overcast
12:55 PM 42.8 °F 35.4 °F 41.0 °F 93% 29.61 in 5.0 mi SSW 15.0 mph - N/A   Overcast
1:15 PM 42.8 °F 36.2 °F 41.0 °F 93% 29.61 in 4.0 mi SW 12.7 mph - N/A   Overcast
1:34 PM 42.8 °F 37.0 °F 42.8 °F 100% 29.61 in 7.0 mi SW 10.4 mph - N/A   Overcast
1:55 PM 42.8 °F 36.6 °F 41.0 °F 93% 29.61 in 3.0 mi SW 11.5 mph - N/A   Overcast
2:15 PM 42.8 °F 37.0 °F 42.8 °F 100% 29.62 in 4.0 mi SW 10.4 mph - N/A   Drizzle
2:34 PM 42.8 °F 36.6 °F 42.8 °F 100% 29.62 in 3.0 mi SW 11.5 mph - N/A   Overcast
2:55 PM 42.8 °F 37.0 °F 42.8 °F 100% 29.62 in 1.8 mi SW 10.4 mph - N/A Rain Light Rain
3:15 PM 42.8 °F 37.0 °F 42.8 °F 100% 29.62 in 2.0 mi WSW 10.4 mph - N/A Rain Rain
3:35 PM 42.8 °F 37.0 °F 42.8 °F 100% 29.62 in 3.0 mi WSW 10.4 mph 16.1 mph N/A Rain Light Rain
3:55 PM 42.8 °F 37.0 °F 42.8 °F 100% 29.63 in 5.0 mi WSW 10.4 mph - N/A   Light Drizzle
4:14 PM 42.8 °F 36.2 °F 41.0 °F 93% 29.64 in 2.5 mi WSW 12.7 mph 20.7 mph N/A Rain Light Rain
4:35 PM 41.0 °F 33.5 °F 39.2 °F 93% 29.66 in 2.5 mi West 13.8 mph 32.2 mph N/A Rain Rain
4:55 PM 37.4 °F 27.5 °F 35.6 °F 93% 29.69 in 3.0 mi West 18.4 mph 25.3 mph N/A   Overcast
5:14 PM 35.6 °F 28.0 °F 35.6 °F 100% 29.70 in 7.0 mi West 10.4 mph 17.3 mph N/A   Overcast
5:35 PM 35.6 °F 26.2 °F 33.8 °F 93% 29.72 in 10.0 mi WNW 15.0 mph 23.0 mph N/A   Overcast
5:55 PM 35.6 °F 26.6 °F 33.8 °F 93% 29.73 in 3.0 mi West 13.8 mph 18.4 mph N/A   Overcast
6:14 PM 33.8 °F 25.3 °F 33.8 °F 100% 29.74 in 3.0 mi WNW 11.5 mph 17.3 mph N/A   Overcast
6:35 PM 33.8 °F 25.8 °F 33.8 °F 100% 29.76 in 1.8 mi West 10.4 mph 16.1 mph N/A   Overcast
6:55 PM 33.8 °F 24.3 °F 33.8 °F 100% 29.78 in 7.0 mi West 13.8 mph 24.2 mph N/A   Overcast
7:14 PM 35.6 °F 26.6 °F 33.8 °F 93% 29.79 in 5.0 mi West 13.8 mph 18.4 mph N/A   Overcast
7:35 PM 35.6 °F 26.6 °F 33.8 °F 93% 29.80 in 7.0 mi West 13.8 mph 19.6 mph N/A   Overcast
7:55 PM 35.6 °F 27.5 °F 33.8 °F 93% 29.81 in 7.0 mi West 11.5 mph 20.7 mph N/A   Overcast
8:14 PM 35.6 °F 27.5 °F 33.8 °F 93% 29.82 in 7.0 mi West 11.5 mph 20.7 mph N/A   Overcast
8:35 PM 35.6 °F 27.1 °F 33.8 °F 93% 29.82 in 7.0 mi West 12.7 mph - N/A   Overcast
8:55 PM 35.6 °F 27.5 °F 33.8 °F 93% 29.83 in 7.0 mi West 11.5 mph 17.3 mph N/A   Mostly Cloudy
9:14 PM 35.6 °F 27.5 °F 33.8 °F 93% 29.84 in 7.0 mi West 11.5 mph - N/A   Overcast
9:35 PM 35.6 °F 27.5 °F 33.8 °F 93% 29.84 in 7.0 mi West 11.5 mph - N/A   Overcast
9:55 PM 35.6 °F 28.6 °F 33.8 °F 93% 29.84 in 4.0 mi WSW 9.2 mph - N/A   Overcast
10:14 PM 35.6 °F 27.5 °F 33.8 °F 93% 29.85 in 2.5 mi West 11.5 mph - N/A   Overcast
10:35 PM 35.6 °F 26.2 °F 33.8 °F 93% 29.86 in 2.5 mi West 15.0 mph 20.7 mph N/A   Overcast
10:55 PM 35.6 °F 25.9 °F 33.8 °F 93% 29.87 in 5.0 mi West 16.1 mph 24.2 mph N/A   Mostly Cloudy
11:14 PM 35.6 °F 24.2 °F 32.0 °F 87% 29.88 in 5.0 mi West 21.9 mph 26.5 mph N/A   Overcast
11:35 PM 35.6 °F 25.9 °F 30.2 °F 81% 29.88 in 7.0 mi West 16.1 mph 23.0 mph N/A   Overcast
11:55 PM 33.8 °F 25.3 °F 30.2 °F 87% 29.89 in 7.0 mi West 11.5 mph 18.4 mph N/A   Overcast